createdAt,value
2023-05-11T00:00:54.938Z,23.8
2023-05-11T00:06:31.865Z,23.8
2023-05-11T00:12:08.336Z,23.8
2023-05-11T00:17:29.310Z,23.8
2023-05-11T00:23:05.988Z,23.8
2023-05-11T00:28:42.479Z,23.8
2023-05-11T00:34:04.669Z,23.8
2023-05-11T00:39:43.124Z,23.8
2023-05-11T00:45:20.091Z,23.8
2023-05-11T00:50:56.583Z,23.7
2023-05-11T00:56:32.233Z,23.7
2023-05-11T01:02:08.722Z,23.7
2023-05-11T01:07:45.660Z,23.7
2023-05-11T01:13:21.812Z,23.7
2023-05-11T01:19:14.299Z,23.7
2023-05-11T01:24:50.157Z,23.7
2023-05-11T01:30:25.918Z,23.6
2023-05-11T01:36:20.595Z,23.6
2023-05-11T01:42:11.443Z,23.6
2023-05-11T01:48:03.386Z,23.6
2023-05-11T01:53:39.659Z,23.6
2023-05-11T01:59:30.911Z,23.6
2023-05-11T02:05:23.077Z,23.6
2023-05-11T02:11:14.986Z,23.5
2023-05-11T02:17:06.726Z,23.5
2023-05-11T02:22:58.766Z,23.5
2023-05-11T02:28:50.348Z,23.5
2023-05-11T02:34:27.045Z,23.5
2023-05-11T02:40:19.295Z,23.5
2023-05-11T02:46:10.951Z,23.5
2023-05-11T02:52:03.606Z,23.4
2023-05-11T02:57:55.150Z,23.4
2023-05-11T03:03:50.091Z,23.4
2023-05-11T03:09:43.083Z,23.4
2023-05-11T03:15:34.660Z,23.4
2023-05-11T03:21:27.312Z,23.4
2023-05-11T03:27:18.721Z,23.4
2023-05-11T03:33:13.886Z,23.4
2023-05-11T03:39:05.226Z,23.4
2023-05-11T03:44:58.436Z,23.4
2023-05-11T03:50:50.950Z,23.4
2023-05-11T03:56:42.492Z,23.4
2023-05-11T04:02:34.334Z,23.4
2023-05-11T04:08:27.337Z,23.4
2023-05-11T04:14:18.759Z,23.4
2023-05-11T04:20:10.752Z,23.4
2023-05-11T04:26:02.603Z,23.4
2023-05-11T04:31:54.399Z,23.4
2023-05-11T04:37:45.364Z,23.3
2023-05-11T04:43:37.214Z,23.3
2023-05-11T04:49:28.968Z,23.3
2023-05-11T04:55:05.845Z,23.3
2023-05-11T05:00:41.747Z,23.3
2023-05-11T05:06:20.749Z,23.3
2023-05-11T05:11:56.390Z,23.3
2023-05-11T05:17:47.352Z,23.3
2023-05-11T05:23:39.538Z,23.3
2023-05-11T05:29:30.945Z,23.3
2023-05-11T05:35:07.588Z,23.2
2023-05-11T05:40:44.184Z,23.2
2023-05-11T05:46:38.006Z,23.2
2023-05-11T05:52:29.254Z,23.1
2023-05-11T05:58:22.776Z,23.1
2023-05-11T06:04:18.502Z,23.1
2023-05-11T06:10:28.344Z,23.1
2023-05-11T06:16:04.797Z,23.1
2023-05-11T06:21:56.601Z,23.1
2023-05-11T06:27:50.946Z,23.1
2023-05-11T06:33:12.591Z,23.1
2023-05-11T06:38:49.148Z,23
2023-05-11T06:44:41.027Z,23
2023-05-11T06:50:37.344Z,23
2023-05-11T06:56:28.940Z,22.9
2023-05-11T07:02:20.535Z,22.9
2023-05-11T07:08:12.903Z,22.9
2023-05-11T07:14:05.265Z,22.9
2023-05-11T07:19:42.466Z,22.9
2023-05-11T07:25:03.274Z,22.9
2023-05-11T07:30:40.634Z,22.8
2023-05-11T07:36:17.618Z,22.9
2023-05-11T07:42:12.517Z,22.8
2023-05-11T07:48:07.401Z,22.8
2023-05-11T07:54:14.734Z,22.8
2023-05-11T08:00:07.486Z,22.8
2023-05-11T08:06:00.543Z,22.8
2023-05-11T08:11:39.704Z,22.8
2023-05-11T08:17:32.012Z,22.8
2023-05-11T08:23:24.661Z,22.8
2023-05-11T08:29:03.574Z,22.8
2023-05-11T08:34:53.565Z,22.8
2023-05-11T08:40:47.686Z,22.8
2023-05-11T08:46:39.398Z,22.7
2023-05-11T08:52:50.010Z,22.7
2023-05-11T08:58:42.706Z,22.7
2023-05-11T09:04:35.056Z,22.7
2023-05-11T09:10:13.881Z,22.7
2023-05-11T09:16:23.639Z,22.7
2023-05-11T09:22:05.813Z,22.7
2023-05-11T09:27:42.209Z,22.7
2023-05-11T09:33:34.421Z,22.7
2023-05-11T09:39:15.791Z,22.6
2023-05-11T09:45:34.363Z,22.6
2023-05-11T09:51:33.333Z,22.6
2023-05-11T09:57:09.398Z,27.7
2023-05-11T10:02:45.689Z,44.4
2023-05-11T10:08:38.858Z,39.7
2023-05-11T10:14:34.311Z,36.7
2023-05-11T10:20:11.761Z,34.4
2023-05-11T10:26:05.352Z,32.6
2023-05-11T10:31:57.279Z,31.1
2023-05-11T10:37:49.102Z,34.9
2023-05-11T10:43:41.247Z,50.2
2023-05-11T10:49:36.388Z,43.5
2023-05-11T10:55:28.893Z,39.6
2023-05-11T11:01:23.214Z,43.2
2023-05-11T11:07:15.091Z,51.6
2023-05-11T11:13:07.470Z,48.6
2023-05-11T11:19:00.435Z,44.1
2023-05-11T11:24:51.246Z,43.6
2023-05-11T11:30:42.400Z,54.2
2023-05-11T11:36:34.272Z,46.9
2023-05-11T11:42:47.499Z,41.8
2023-05-11T11:48:41.101Z,38.6
2023-05-11T11:54:33.691Z,36.1
2023-05-11T12:00:24.675Z,34.1
2023-05-11T12:06:20.050Z,32.6
2023-05-11T12:12:12.293Z,31.3
2023-05-11T12:18:03.533Z,30.3
2023-05-11T12:23:55.260Z,29.4
2023-05-11T12:29:47.235Z,28.7
2023-05-11T12:35:38.920Z,28.1
2023-05-11T12:41:30.141Z,27.5
2023-05-11T12:47:21.846Z,27.1
2023-05-11T12:53:13.215Z,26.7
2023-05-11T12:59:04.747Z,26.3
2023-05-11T13:04:41.873Z,26
2023-05-11T13:10:33.403Z,25.7
2023-05-11T13:16:27.853Z,25.4
2023-05-11T13:22:20.296Z,25.3
2023-05-11T13:28:13.316Z,25.1
2023-05-11T13:34:01.996Z,24.9
2023-05-11T13:39:53.282Z,24.7
2023-05-11T13:45:45.017Z,24.6
2023-05-11T13:51:40.260Z,24.4
2023-05-11T13:57:32.171Z,24.3
2023-05-11T14:03:41.572Z,24.2
2023-05-11T14:09:48.544Z,24.1
2023-05-11T14:15:41.017Z,24
2023-05-11T14:21:35.094Z,23.9
2023-05-11T14:27:35.095Z,23.9
2023-05-11T14:33:30.133Z,23.8
2023-05-11T14:39:22.932Z,23.8
2023-05-11T14:45:15.332Z,23.7
2023-05-11T14:51:07.451Z,23.6
2023-05-11T14:56:59.668Z,23.6
2023-05-11T15:03:06.934Z,23.5
2023-05-11T15:09:14.940Z,23.4
2023-05-11T15:15:07.151Z,23.4
2023-05-11T15:21:00.611Z,23.3
2023-05-11T15:26:53.017Z,23.3
2023-05-11T15:32:47.979Z,23.3
2023-05-11T15:38:56.662Z,23.2
2023-05-11T15:44:50.358Z,23.1
2023-05-11T15:50:29.664Z,23.1
2023-05-11T15:56:22.521Z,23.1
2023-05-11T16:02:17.234Z,23.1
2023-05-11T16:08:11.633Z,23
2023-05-11T16:14:06.174Z,23
2023-05-11T16:20:03.804Z,23
2023-05-11T16:25:58.759Z,22.9
2023-05-11T16:32:08.553Z,22.9
2023-05-11T16:38:06.084Z,22.9
2023-05-11T16:43:59.891Z,22.9
2023-05-11T16:49:56.944Z,22.9
2023-05-11T16:55:56.817Z,22.9
2023-05-11T17:01:59.844Z,22.9
2023-05-11T17:08:00.470Z,22.8
2023-05-11T17:14:01.104Z,22.9
2023-05-11T17:20:01.612Z,22.8
2023-05-11T17:26:02.507Z,22.8
2023-05-11T17:32:44.567Z,22.8
2023-05-11T17:38:56.808Z,22.8
2023-05-11T17:44:58.840Z,22.8
2023-05-11T17:51:00.596Z,22.7
2023-05-11T17:57:01.108Z,22.7
2023-05-11T18:03:02.883Z,22.7
2023-05-11T18:09:18.279Z,22.6
2023-05-11T18:15:20.194Z,22.6
2023-05-11T18:21:07.447Z,22.6
2023-05-11T18:27:07.373Z,22.6
2023-05-11T18:33:08.260Z,22.6
2023-05-11T18:38:53.483Z,22.6
2023-05-11T18:44:54.552Z,22.6
2023-05-11T18:50:57.566Z,22.6
2023-05-11T18:57:13.698Z,22.6
2023-05-11T19:03:26.861Z,22.6
2023-05-11T19:09:28.903Z,22.6
2023-05-11T19:15:30.892Z,22.6
2023-05-11T19:21:33.400Z,22.5
2023-05-11T19:27:45.648Z,22.5
2023-05-11T19:33:47.268Z,22.6
2023-05-11T19:39:47.443Z,22.5
2023-05-11T19:46:40.711Z,22.5
2023-05-11T19:52:45.412Z,22.5
2023-05-11T19:58:45.870Z,22.5
2023-05-11T20:02:43.931Z,22.4
2023-05-11T20:08:48.544Z,22.5
2023-05-11T20:14:49.764Z,22.4
2023-05-11T20:20:51.190Z,22.5
2023-05-11T20:26:52.223Z,22.4
2023-05-11T20:39:06.852Z,22.4
2023-05-11T20:45:06.097Z,22.4
2023-05-11T20:51:26.503Z,22.4
2023-05-11T20:57:27.473Z,22.4
2023-05-11T21:03:35.250Z,22.4
2023-05-11T21:09:33.912Z,22.4
2023-05-11T21:15:31.306Z,22.4
2023-05-11T21:21:29.687Z,22.4
2023-05-11T21:27:09.382Z,22.4
2023-05-11T21:32:47.920Z,22.3
2023-05-11T21:38:10.891Z,22.3
2023-05-11T21:43:47.694Z,22.3
2023-05-11T21:49:07.968Z,22.3
2023-05-11T21:54:44.103Z,22.3
2023-05-11T22:00:21.230Z,22.3
2023-05-11T22:05:58.046Z,22.3
2023-05-11T22:11:42.283Z,22.3
2023-05-11T22:17:18.282Z,22.3
2023-05-11T22:22:54.139Z,22.3
2023-05-11T22:28:30.400Z,22.3
2023-05-11T22:34:06.862Z,22.3
2023-05-11T22:39:27.245Z,22.3
2023-05-11T22:44:48.486Z,22.3
2023-05-11T22:50:09.681Z,22.3
2023-05-11T22:55:30.093Z,22.2
2023-05-11T23:00:36.364Z,22.2
2023-05-11T23:05:58.381Z,22.2
2023-05-11T23:11:33.974Z,22.2
2023-05-11T23:16:54.715Z,22.2
2023-05-11T23:22:16.398Z,22.1
2023-05-11T23:27:21.012Z,22.1
2023-05-11T23:32:42.772Z,22.1
2023-05-11T23:38:03.961Z,22.1
2023-05-11T23:43:24.883Z,22.1
2023-05-11T23:49:01.929Z,22.1
2023-05-11T23:54:22.749Z,22.1
2023-05-11T23:59:59.961Z,22.1
